sensor_id;sensor_type;location;lat;lon;timestamp;P1;durP1;ratioP1;P2;durP2;ratioP2
37905;SDS011;23739;51.448;6.674;2023-08-20T00:01:38;5.70;;;4.88;;
37905;SDS011;23739;51.448;6.674;2023-08-20T00:04:04;7.03;;;4.30;;
37905;SDS011;23739;51.448;6.674;2023-08-20T00:06:30;6.82;;;5.13;;
37905;SDS011;23739;51.448;6.674;2023-08-20T00:08:57;8.70;;;5.22;;
37905;SDS011;23739;51.448;6.674;2023-08-20T00:11:22;7.80;;;5.65;;
37905;SDS011;23739;51.448;6.674;2023-08-20T00:13:48;8.18;;;5.55;;
37905;SDS011;23739;51.448;6.674;2023-08-20T00:16:14;9.13;;;5.25;;
37905;SDS011;23739;51.448;6.674;2023-08-20T00:18:40;10.40;;;4.90;;
37905;SDS011;23739;51.448;6.674;2023-08-20T00:21:06;8.30;;;5.35;;
37905;SDS011;23739;51.448;6.674;2023-08-20T00:23:33;10.75;;;5.45;;
37905;SDS011;23739;51.448;6.674;2023-08-20T00:26:03;10.35;;;6.20;;
37905;SDS011;23739;51.448;6.674;2023-08-20T00:28:29;6.05;;;4.75;;
37905;SDS011;23739;51.448;6.674;2023-08-20T00:30:55;6.68;;;5.50;;
37905;SDS011;23739;51.448;6.674;2023-08-20T00:33:21;7.10;;;4.70;;
37905;SDS011;23739;51.448;6.674;2023-08-20T00:35:47;9.52;;;4.97;;
37905;SDS011;23739;51.448;6.674;2023-08-20T00:38:12;10.60;;;5.30;;
37905;SDS011;23739;51.448;6.674;2023-08-20T00:40:38;12.07;;;5.40;;
37905;SDS011;23739;51.448;6.674;2023-08-20T00:43:04;6.35;;;4.63;;
37905;SDS011;23739;51.448;6.674;2023-08-20T00:45:30;12.20;;;5.32;;
37905;SDS011;23739;51.448;6.674;2023-08-20T00:47:56;10.90;;;5.60;;
37905;SDS011;23739;51.448;6.674;2023-08-20T00:50:22;6.75;;;4.50;;
37905;SDS011;23739;51.448;6.674;2023-08-20T00:52:48;8.63;;;5.55;;
37905;SDS011;23739;51.448;6.674;2023-08-20T00:55:14;9.23;;;6.60;;
37905;SDS011;23739;51.448;6.674;2023-08-20T00:57:40;6.57;;;5.38;;
37905;SDS011;23739;51.448;6.674;2023-08-20T01:00:06;6.47;;;5.32;;
37905;SDS011;23739;51.448;6.674;2023-08-20T01:02:36;8.13;;;5.88;;
37905;SDS011;23739;51.448;6.674;2023-08-20T01:05:03;8.60;;;5.30;;
37905;SDS011;23739;51.448;6.674;2023-08-20T01:07:39;8.88;;;6.30;;
37905;SDS011;23739;51.448;6.674;2023-08-20T01:10:15;11.18;;;6.13;;
37905;SDS011;23739;51.448;6.674;2023-08-20T01:13:04;9.13;;;6.88;;
37905;SDS011;23739;51.448;6.674;2023-08-20T01:15:32;8.95;;;6.13;;
37905;SDS011;23739;51.448;6.674;2023-08-20T01:17:58;10.30;;;6.47;;
37905;SDS011;23739;51.448;6.674;2023-08-20T01:20:25;9.93;;;6.85;;
37905;SDS011;23739;51.448;6.674;2023-08-20T01:25:37;6.97;;;6.28;;
37905;SDS011;23739;51.448;6.674;2023-08-20T01:28:27;10.13;;;6.03;;
37905;SDS011;23739;51.448;6.674;2023-08-20T01:30:55;7.47;;;5.85;;
37905;SDS011;23739;51.448;6.674;2023-08-20T01:33:24;6.85;;;5.68;;
37905;SDS011;23739;51.448;6.674;2023-08-20T01:35:51;8.38;;;5.88;;
37905;SDS011;23739;51.448;6.674;2023-08-20T01:38:16;9.25;;;6.50;;
37905;SDS011;23739;51.448;6.674;2023-08-20T01:40:42;7.55;;;5.40;;
37905;SDS011;23739;51.448;6.674;2023-08-20T01:43:08;7.63;;;5.88;;
37905;SDS011;23739;51.448;6.674;2023-08-20T01:45:34;8.90;;;6.40;;
37905;SDS011;23739;51.448;6.674;2023-08-20T01:48:00;8.20;;;6.53;;
37905;SDS011;23739;51.448;6.674;2023-08-20T01:50:26;10.50;;;6.65;;
37905;SDS011;23739;51.448;6.674;2023-08-20T01:52:52;9.20;;;7.00;;
37905;SDS011;23739;51.448;6.674;2023-08-20T01:55:18;10.10;;;7.35;;
37905;SDS011;23739;51.448;6.674;2023-08-20T01:57:43;12.18;;;6.68;;
37905;SDS011;23739;51.448;6.674;2023-08-20T02:00:09;8.23;;;7.28;;
37905;SDS011;23739;51.448;6.674;2023-08-20T02:02:36;9.07;;;7.00;;
37905;SDS011;23739;51.448;6.674;2023-08-20T02:05:01;14.50;;;7.47;;
37905;SDS011;23739;51.448;6.674;2023-08-20T02:07:28;12.88;;;7.45;;
37905;SDS011;23739;51.448;6.674;2023-08-20T02:09:54;11.70;;;8.82;;
37905;SDS011;23739;51.448;6.674;2023-08-20T02:12:19;13.10;;;9.10;;
37905;SDS011;23739;51.448;6.674;2023-08-20T02:14:45;11.32;;;9.07;;
37905;SDS011;23739;51.448;6.674;2023-08-20T02:17:11;11.30;;;8.38;;
37905;SDS011;23739;51.448;6.674;2023-08-20T02:19:37;13.68;;;9.00;;
37905;SDS011;23739;51.448;6.674;2023-08-20T02:22:03;11.75;;;8.65;;
37905;SDS011;23739;51.448;6.674;2023-08-20T02:24:29;10.63;;;8.13;;
37905;SDS011;23739;51.448;6.674;2023-08-20T02:26:55;14.23;;;8.88;;
37905;SDS011;23739;51.448;6.674;2023-08-20T02:29:22;12.18;;;9.07;;
37905;SDS011;23739;51.448;6.674;2023-08-20T02:31:48;14.10;;;8.13;;
37905;SDS011;23739;51.448;6.674;2023-08-20T02:34:13;11.40;;;8.55;;
37905;SDS011;23739;51.448;6.674;2023-08-20T02:36:39;16.75;;;8.73;;
37905;SDS011;23739;51.448;6.674;2023-08-20T02:39:05;13.40;;;9.35;;
37905;SDS011;23739;51.448;6.674;2023-08-20T02:41:33;11.95;;;8.52;;
37905;SDS011;23739;51.448;6.674;2023-08-20T02:44:00;12.18;;;8.57;;
37905;SDS011;23739;51.448;6.674;2023-08-20T02:46:27;10.07;;;7.30;;
37905;SDS011;23739;51.448;6.674;2023-08-20T02:48:53;10.63;;;8.35;;
37905;SDS011;23739;51.448;6.674;2023-08-20T02:51:18;10.27;;;8.20;;
37905;SDS011;23739;51.448;6.674;2023-08-20T02:53:44;14.35;;;8.25;;
37905;SDS011;23739;51.448;6.674;2023-08-20T02:56:10;12.00;;;8.15;;
37905;SDS011;23739;51.448;6.674;2023-08-20T02:58:35;10.10;;;6.90;;
37905;SDS011;23739;51.448;6.674;2023-08-20T03:01:01;9.95;;;7.63;;
37905;SDS011;23739;51.448;6.674;2023-08-20T03:03:27;8.60;;;7.13;;
37905;SDS011;23739;51.448;6.674;2023-08-20T03:05:53;14.32;;;8.35;;
37905;SDS011;23739;51.448;6.674;2023-08-20T03:08:19;10.77;;;8.52;;
37905;SDS011;23739;51.448;6.674;2023-08-20T03:10:45;15.30;;;8.82;;
37905;SDS011;23739;51.448;6.674;2023-08-20T03:13:11;15.00;;;8.63;;
37905;SDS011;23739;51.448;6.674;2023-08-20T03:15:37;9.07;;;8.05;;
37905;SDS011;23739;51.448;6.674;2023-08-20T03:18:03;13.23;;;7.95;;
37905;SDS011;23739;51.448;6.674;2023-08-20T03:20:29;14.43;;;7.70;;
37905;SDS011;23739;51.448;6.674;2023-08-20T03:22:56;11.18;;;7.68;;
37905;SDS011;23739;51.448;6.674;2023-08-20T03:25:22;15.73;;;8.52;;
37905;SDS011;23739;51.448;6.674;2023-08-20T03:27:49;11.27;;;7.07;;
37905;SDS011;23739;51.448;6.674;2023-08-20T03:30:15;10.40;;;7.55;;
37905;SDS011;23739;51.448;6.674;2023-08-20T03:32:40;10.80;;;6.20;;
37905;SDS011;23739;51.448;6.674;2023-08-20T03:35:06;11.27;;;6.63;;
37905;SDS011;23739;51.448;6.674;2023-08-20T03:37:32;12.77;;;6.10;;
37905;SDS011;23739;51.448;6.674;2023-08-20T03:39:58;11.30;;;7.35;;
37905;SDS011;23739;51.448;6.674;2023-08-20T03:42:24;8.70;;;6.38;;
37905;SDS011;23739;51.448;6.674;2023-08-20T03:44:50;10.80;;;7.07;;
37905;SDS011;23739;51.448;6.674;2023-08-20T03:47:16;12.23;;;7.88;;
37905;SDS011;23739;51.448;6.674;2023-08-20T03:49:45;12.02;;;7.57;;
37905;SDS011;23739;51.448;6.674;2023-08-20T03:52:12;7.90;;;7.10;;
37905;SDS011;23739;51.448;6.674;2023-08-20T03:54:37;12.50;;;8.07;;
37905;SDS011;23739;51.448;6.674;2023-08-20T03:57:03;7.63;;;6.43;;
37905;SDS011;23739;51.448;6.674;2023-08-20T03:59:29;7.05;;;6.18;;
37905;SDS011;23739;51.448;6.674;2023-08-20T04:01:56;8.77;;;7.45;;
37905;SDS011;23739;51.448;6.674;2023-08-20T04:04:22;12.38;;;7.90;;
37905;SDS011;23739;51.448;6.674;2023-08-20T04:06:47;11.80;;;6.72;;
37905;SDS011;23739;51.448;6.674;2023-08-20T04:09:13;8.00;;;5.57;;
37905;SDS011;23739;51.448;6.674;2023-08-20T04:11:39;8.20;;;6.18;;
37905;SDS011;23739;51.448;6.674;2023-08-20T04:14:05;9.23;;;6.15;;
37905;SDS011;23739;51.448;6.674;2023-08-20T04:16:31;9.60;;;6.70;;
37905;SDS011;23739;51.448;6.674;2023-08-20T04:18:56;10.07;;;6.88;;
37905;SDS011;23739;51.448;6.674;2023-08-20T04:21:22;6.85;;;6.20;;
37905;SDS011;23739;51.448;6.674;2023-08-20T04:23:48;6.93;;;6.22;;
37905;SDS011;23739;51.448;6.674;2023-08-20T04:26:14;9.98;;;6.72;;
37905;SDS011;23739;51.448;6.674;2023-08-20T04:28:39;9.13;;;6.53;;
37905;SDS011;23739;51.448;6.674;2023-08-20T04:31:05;15.02;;;9.50;;
37905;SDS011;23739;51.448;6.674;2023-08-20T04:33:31;12.98;;;8.18;;
37905;SDS011;23739;51.448;6.674;2023-08-20T04:35:57;11.20;;;8.15;;
37905;SDS011;23739;51.448;6.674;2023-08-20T04:38:22;15.85;;;7.50;;
37905;SDS011;23739;51.448;6.674;2023-08-20T04:40:48;9.10;;;7.82;;
37905;SDS011;23739;51.448;6.674;2023-08-20T04:43:14;10.73;;;6.72;;
37905;SDS011;23739;51.448;6.674;2023-08-20T04:45:41;10.45;;;7.70;;
37905;SDS011;23739;51.448;6.674;2023-08-20T04:48:07;10.40;;;7.28;;
37905;SDS011;23739;51.448;6.674;2023-08-20T04:50:33;10.07;;;7.28;;
37905;SDS011;23739;51.448;6.674;2023-08-20T04:52:59;18.33;;;8.25;;
37905;SDS011;23739;51.448;6.674;2023-08-20T04:55:26;7.05;;;6.35;;
37905;SDS011;23739;51.448;6.674;2023-08-20T04:57:52;8.73;;;6.38;;
37905;SDS011;23739;51.448;6.674;2023-08-20T05:00:18;10.02;;;6.40;;
37905;SDS011;23739;51.448;6.674;2023-08-20T05:02:44;7.20;;;5.95;;
37905;SDS011;23739;51.448;6.674;2023-08-20T05:05:10;9.20;;;7.40;;
37905;SDS011;23739;51.448;6.674;2023-08-20T05:07:36;8.48;;;7.10;;
37905;SDS011;23739;51.448;6.674;2023-08-20T05:10:02;14.30;;;8.02;;
37905;SDS011;23739;51.448;6.674;2023-08-20T05:12:28;11.32;;;7.63;;
37905;SDS011;23739;51.448;6.674;2023-08-20T05:14:54;10.80;;;7.55;;
37905;SDS011;23739;51.448;6.674;2023-08-20T05:17:20;8.52;;;6.85;;
37905;SDS011;23739;51.448;6.674;2023-08-20T05:19:45;9.18;;;7.80;;
37905;SDS011;23739;51.448;6.674;2023-08-20T05:22:11;8.07;;;6.97;;
37905;SDS011;23739;51.448;6.674;2023-08-20T05:24:38;13.27;;;8.02;;
37905;SDS011;23739;51.448;6.674;2023-08-20T05:27:13;12.02;;;8.43;;
37905;SDS011;23739;51.448;6.674;2023-08-20T05:29:41;14.68;;;8.00;;
37905;SDS011;23739;51.448;6.674;2023-08-20T05:32:07;14.82;;;7.90;;
37905;SDS011;23739;51.448;6.674;2023-08-20T05:34:33;13.68;;;8.18;;
37905;SDS011;23739;51.448;6.674;2023-08-20T05:37:00;10.40;;;8.48;;
37905;SDS011;23739;51.448;6.674;2023-08-20T05:39:26;10.70;;;8.05;;
37905;SDS011;23739;51.448;6.674;2023-08-20T05:41:52;14.45;;;7.75;;
37905;SDS011;23739;51.448;6.674;2023-08-20T05:44:19;11.43;;;8.90;;
37905;SDS011;23739;51.448;6.674;2023-08-20T05:46:45;11.00;;;8.30;;
37905;SDS011;23739;51.448;6.674;2023-08-20T05:49:14;9.43;;;8.45;;
37905;SDS011;23739;51.448;6.674;2023-08-20T05:54:09;12.30;;;8.90;;
37905;SDS011;23739;51.448;6.674;2023-08-20T05:56:35;11.57;;;9.05;;
37905;SDS011;23739;51.448;6.674;2023-08-20T05:59:00;10.82;;;9.15;;
37905;SDS011;23739;51.448;6.674;2023-08-20T06:01:26;10.68;;;9.57;;
37905;SDS011;23739;51.448;6.674;2023-08-20T06:03:52;11.25;;;8.38;;
37905;SDS011;23739;51.448;6.674;2023-08-20T06:06:18;13.98;;;9.90;;
37905;SDS011;23739;51.448;6.674;2023-08-20T06:08:43;10.93;;;9.38;;
37905;SDS011;23739;51.448;6.674;2023-08-20T06:11:09;13.82;;;10.27;;
37905;SDS011;23739;51.448;6.674;2023-08-20T06:13:35;11.70;;;9.00;;
37905;SDS011;23739;51.448;6.674;2023-08-20T06:16:01;12.25;;;10.30;;
37905;SDS011;23739;51.448;6.674;2023-08-20T06:18:26;14.13;;;9.27;;
37905;SDS011;23739;51.448;6.674;2023-08-20T06:20:52;16.27;;;12.35;;
37905;SDS011;23739;51.448;6.674;2023-08-20T06:23:18;12.35;;;10.95;;
37905;SDS011;23739;51.448;6.674;2023-08-20T06:25:44;12.45;;;8.88;;
37905;SDS011;23739;51.448;6.674;2023-08-20T06:28:09;9.93;;;8.93;;
37905;SDS011;23739;51.448;6.674;2023-08-20T06:30:37;15.80;;;11.73;;
37905;SDS011;23739;51.448;6.674;2023-08-20T06:33:02;19.65;;;12.35;;
37905;SDS011;23739;51.448;6.674;2023-08-20T06:35:28;19.00;;;12.18;;
37905;SDS011;23739;51.448;6.674;2023-08-20T06:37:54;15.35;;;11.13;;
37905;SDS011;23739;51.448;6.674;2023-08-20T06:40:20;22.02;;;13.80;;
37905;SDS011;23739;51.448;6.674;2023-08-20T06:42:45;18.42;;;12.90;;
37905;SDS011;23739;51.448;6.674;2023-08-20T06:45:11;17.40;;;11.73;;
37905;SDS011;23739;51.448;6.674;2023-08-20T06:47:37;15.02;;;11.82;;
37905;SDS011;23739;51.448;6.674;2023-08-20T06:50:03;14.98;;;12.75;;
37905;SDS011;23739;51.448;6.674;2023-08-20T06:52:29;16.55;;;11.30;;
37905;SDS011;23739;51.448;6.674;2023-08-20T06:54:55;13.85;;;10.40;;
37905;SDS011;23739;51.448;6.674;2023-08-20T06:57:21;19.08;;;13.65;;
37905;SDS011;23739;51.448;6.674;2023-08-20T06:59:47;16.50;;;13.20;;
37905;SDS011;23739;51.448;6.674;2023-08-20T07:02:12;21.33;;;13.52;;
37905;SDS011;23739;51.448;6.674;2023-08-20T07:04:38;18.23;;;13.93;;
37905;SDS011;23739;51.448;6.674;2023-08-20T07:07:04;22.05;;;14.95;;
37905;SDS011;23739;51.448;6.674;2023-08-20T07:09:30;21.35;;;15.20;;
37905;SDS011;23739;51.448;6.674;2023-08-20T07:11:56;19.17;;;12.20;;
37905;SDS011;23739;51.448;6.674;2023-08-20T07:14:22;22.17;;;14.68;;
37905;SDS011;23739;51.448;6.674;2023-08-20T07:16:48;19.25;;;13.80;;
37905;SDS011;23739;51.448;6.674;2023-08-20T07:19:14;21.20;;;14.63;;
37905;SDS011;23739;51.448;6.674;2023-08-20T07:21:39;18.08;;;11.48;;
37905;SDS011;23739;51.448;6.674;2023-08-20T07:24:05;13.38;;;10.88;;
37905;SDS011;23739;51.448;6.674;2023-08-20T07:26:31;17.52;;;13.75;;
37905;SDS011;23739;51.448;6.674;2023-08-20T07:28:57;24.70;;;15.48;;
37905;SDS011;23739;51.448;6.674;2023-08-20T07:31:23;16.50;;;14.02;;
37905;SDS011;23739;51.448;6.674;2023-08-20T07:33:50;22.15;;;13.68;;
37905;SDS011;23739;51.448;6.674;2023-08-20T07:36:17;20.92;;;13.80;;
37905;SDS011;23739;51.448;6.674;2023-08-20T07:38:44;14.02;;;12.18;;
37905;SDS011;23739;51.448;6.674;2023-08-20T07:41:10;17.95;;;14.25;;
37905;SDS011;23739;51.448;6.674;2023-08-20T07:43:40;20.25;;;13.05;;
37905;SDS011;23739;51.448;6.674;2023-08-20T07:46:06;19.63;;;15.93;;
37905;SDS011;23739;51.448;6.674;2023-08-20T07:48:33;23.60;;;16.05;;
37905;SDS011;23739;51.448;6.674;2023-08-20T07:51:00;21.08;;;15.30;;
37905;SDS011;23739;51.448;6.674;2023-08-20T07:53:26;19.80;;;16.05;;
37905;SDS011;23739;51.448;6.674;2023-08-20T07:55:52;18.17;;;12.80;;
37905;SDS011;23739;51.448;6.674;2023-08-20T07:58:18;18.05;;;13.35;;
37905;SDS011;23739;51.448;6.674;2023-08-20T08:00:43;24.15;;;15.55;;
37905;SDS011;23739;51.448;6.674;2023-08-20T08:03:09;21.58;;;15.32;;
37905;SDS011;23739;51.448;6.674;2023-08-20T08:05:35;18.73;;;14.48;;
37905;SDS011;23739;51.448;6.674;2023-08-20T08:08:01;19.17;;;14.90;;
37905;SDS011;23739;51.448;6.674;2023-08-20T08:10:28;23.30;;;15.52;;
37905;SDS011;23739;51.448;6.674;2023-08-20T08:12:54;17.05;;;13.95;;
37905;SDS011;23739;51.448;6.674;2023-08-20T08:15:20;19.08;;;14.32;;
37905;SDS011;23739;51.448;6.674;2023-08-20T08:17:45;18.10;;;14.38;;
37905;SDS011;23739;51.448;6.674;2023-08-20T08:20:11;17.08;;;13.02;;
37905;SDS011;23739;51.448;6.674;2023-08-20T08:22:39;15.70;;;12.77;;
37905;SDS011;23739;51.448;6.674;2023-08-20T08:25:05;16.90;;;12.63;;
37905;SDS011;23739;51.448;6.674;2023-08-20T08:27:31;15.13;;;12.93;;
37905;SDS011;23739;51.448;6.674;2023-08-20T08:29:57;13.25;;;11.02;;
37905;SDS011;23739;51.448;6.674;2023-08-20T08:32:23;12.02;;;9.50;;
37905;SDS011;23739;51.448;6.674;2023-08-20T08:34:48;18.10;;;12.07;;
37905;SDS011;23739;51.448;6.674;2023-08-20T08:37:15;17.88;;;12.02;;
37905;SDS011;23739;51.448;6.674;2023-08-20T08:39:41;16.77;;;13.25;;
37905;SDS011;23739;51.448;6.674;2023-08-20T08:42:07;16.73;;;13.35;;
37905;SDS011;23739;51.448;6.674;2023-08-20T08:44:37;20.33;;;14.98;;
37905;SDS011;23739;51.448;6.674;2023-08-20T08:47:04;19.98;;;14.13;;
37905;SDS011;23739;51.448;6.674;2023-08-20T08:49:33;17.40;;;13.20;;
37905;SDS011;23739;51.448;6.674;2023-08-20T08:51:59;14.77;;;12.52;;
37905;SDS011;23739;51.448;6.674;2023-08-20T08:54:26;14.27;;;12.48;;
37905;SDS011;23739;51.448;6.674;2023-08-20T08:56:52;20.73;;;13.73;;
37905;SDS011;23739;51.448;6.674;2023-08-20T08:59:24;15.10;;;11.98;;
37905;SDS011;23739;51.448;6.674;2023-08-20T09:01:50;15.48;;;13.43;;
37905;SDS011;23739;51.448;6.674;2023-08-20T09:04:16;18.00;;;13.48;;
37905;SDS011;23739;51.448;6.674;2023-08-20T09:06:49;19.65;;;15.25;;
37905;SDS011;23739;51.448;6.674;2023-08-20T09:09:17;20.15;;;13.63;;
37905;SDS011;23739;51.448;6.674;2023-08-20T09:11:44;21.30;;;13.95;;
37905;SDS011;23739;51.448;6.674;2023-08-20T09:14:20;16.48;;;14.23;;
37905;SDS011;23739;51.448;6.674;2023-08-20T09:16:54;20.42;;;15.45;;
37905;SDS011;23739;51.448;6.674;2023-08-20T09:19:23;18.27;;;14.85;;
37905;SDS011;23739;51.448;6.674;2023-08-20T09:21:49;20.33;;;16.13;;
37905;SDS011;23739;51.448;6.674;2023-08-20T09:24:25;20.05;;;15.35;;
37905;SDS011;23739;51.448;6.674;2023-08-20T09:26:57;19.10;;;17.00;;
37905;SDS011;23739;51.448;6.674;2023-08-20T09:29:26;15.25;;;12.88;;
37905;SDS011;23739;51.448;6.674;2023-08-20T09:32:02;18.08;;;14.55;;
37905;SDS011;23739;51.448;6.674;2023-08-20T09:34:37;15.15;;;12.95;;
37905;SDS011;23739;51.448;6.674;2023-08-20T09:37:14;16.13;;;13.45;;
37905;SDS011;23739;51.448;6.674;2023-08-20T09:39:41;15.75;;;11.95;;
37905;SDS011;23739;51.448;6.674;2023-08-20T09:42:07;15.63;;;13.30;;
37905;SDS011;23739;51.448;6.674;2023-08-20T09:44:36;14.88;;;12.35;;
37905;SDS011;23739;51.448;6.674;2023-08-20T09:47:05;13.82;;;11.55;;
37905;SDS011;23739;51.448;6.674;2023-08-20T09:49:47;12.95;;;11.10;;
37905;SDS011;23739;51.448;6.674;2023-08-20T09:52:17;14.38;;;11.38;;
37905;SDS011;23739;51.448;6.674;2023-08-20T09:57:33;13.07;;;10.38;;
37905;SDS011;23739;51.448;6.674;2023-08-20T10:00:01;10.65;;;9.55;;
37905;SDS011;23739;51.448;6.674;2023-08-20T10:02:30;12.27;;;9.63;;
37905;SDS011;23739;51.448;6.674;2023-08-20T10:04:58;11.13;;;9.63;;
37905;SDS011;23739;51.448;6.674;2023-08-20T10:07:28;10.07;;;8.98;;
37905;SDS011;23739;51.448;6.674;2023-08-20T10:09:58;10.75;;;7.53;;
37905;SDS011;23739;51.448;6.674;2023-08-20T10:12:29;9.45;;;6.93;;
37905;SDS011;23739;51.448;6.674;2023-08-20T10:14:56;9.20;;;6.97;;
37905;SDS011;23739;51.448;6.674;2023-08-20T10:17:23;8.77;;;5.95;;
37905;SDS011;23739;51.448;6.674;2023-08-20T10:19:52;7.00;;;6.30;;
37905;SDS011;23739;51.448;6.674;2023-08-20T10:22:19;8.60;;;6.57;;
37905;SDS011;23739;51.448;6.674;2023-08-20T10:24:51;6.43;;;5.70;;
37905;SDS011;23739;51.448;6.674;2023-08-20T10:27:28;7.47;;;6.68;;
37905;SDS011;23739;51.448;6.674;2023-08-20T10:30:00;10.82;;;6.30;;
37905;SDS011;23739;51.448;6.674;2023-08-20T10:32:43;7.80;;;6.05;;
37905;SDS011;23739;51.448;6.674;2023-08-20T10:35:09;8.40;;;7.05;;
37905;SDS011;23739;51.448;6.674;2023-08-20T10:37:35;6.53;;;5.43;;
37905;SDS011;23739;51.448;6.674;2023-08-20T10:40:07;9.50;;;6.65;;
37905;SDS011;23739;51.448;6.674;2023-08-20T10:42:34;8.23;;;6.10;;
37905;SDS011;23739;51.448;6.674;2023-08-20T10:45:08;7.20;;;6.10;;
37905;SDS011;23739;51.448;6.674;2023-08-20T10:47:44;6.90;;;6.20;;
37905;SDS011;23739;51.448;6.674;2023-08-20T10:50:11;8.82;;;5.07;;
37905;SDS011;23739;51.448;6.674;2023-08-20T10:52:41;9.05;;;5.57;;
37905;SDS011;23739;51.448;6.674;2023-08-20T10:55:11;7.00;;;5.25;;
37905;SDS011;23739;51.448;6.674;2023-08-20T10:57:38;6.50;;;5.38;;
37905;SDS011;23739;51.448;6.674;2023-08-20T11:00:04;11.02;;;6.50;;
37905;SDS011;23739;51.448;6.674;2023-08-20T11:02:40;6.18;;;5.30;;
37905;SDS011;23739;51.448;6.674;2023-08-20T11:05:16;7.20;;;6.28;;
37905;SDS011;23739;51.448;6.674;2023-08-20T11:07:47;12.43;;;6.47;;
37905;SDS011;23739;51.448;6.674;2023-08-20T11:10:14;7.10;;;5.10;;
37905;SDS011;23739;51.448;6.674;2023-08-20T11:12:41;7.75;;;4.28;;
37905;SDS011;23739;51.448;6.674;2023-08-20T11:15:08;5.78;;;4.70;;
37905;SDS011;23739;51.448;6.674;2023-08-20T11:17:39;7.72;;;4.40;;
37905;SDS011;23739;51.448;6.674;2023-08-20T11:20:07;8.40;;;4.47;;
37905;SDS011;23739;51.448;6.674;2023-08-20T11:22:32;11.15;;;4.50;;
37905;SDS011;23739;51.448;6.674;2023-08-20T11:24:59;8.52;;;4.90;;
37905;SDS011;23739;51.448;6.674;2023-08-20T11:27:28;6.63;;;4.38;;
37905;SDS011;23739;51.448;6.674;2023-08-20T11:29:54;7.00;;;3.70;;
37905;SDS011;23739;51.448;6.674;2023-08-20T11:32:21;5.47;;;3.13;;
37905;SDS011;23739;51.448;6.674;2023-08-20T11:34:49;4.90;;;3.30;;
37905;SDS011;23739;51.448;6.674;2023-08-20T11:37:19;6.03;;;3.67;;
37905;SDS011;23739;51.448;6.674;2023-08-20T11:39:48;6.40;;;2.92;;
37905;SDS011;23739;51.448;6.674;2023-08-20T11:42:14;5.88;;;3.58;;
37905;SDS011;23739;51.448;6.674;2023-08-20T11:44:42;6.22;;;3.10;;
37905;SDS011;23739;51.448;6.674;2023-08-20T11:47:13;3.08;;;2.67;;
37905;SDS011;23739;51.448;6.674;2023-08-20T11:49:42;7.40;;;3.38;;
37905;SDS011;23739;51.448;6.674;2023-08-20T11:52:08;5.55;;;3.47;;
37905;SDS011;23739;51.448;6.674;2023-08-20T11:54:35;6.55;;;3.40;;
37905;SDS011;23739;51.448;6.674;2023-08-20T11:57:04;4.47;;;3.13;;
37905;SDS011;23739;51.448;6.674;2023-08-20T11:59:31;5.63;;;2.95;;
37905;SDS011;23739;51.448;6.674;2023-08-20T12:01:58;5.55;;;3.03;;
37905;SDS011;23739;51.448;6.674;2023-08-20T12:04:30;4.80;;;2.85;;
37905;SDS011;23739;51.448;6.674;2023-08-20T12:09:39;5.57;;;3.17;;
37905;SDS011;23739;51.448;6.674;2023-08-20T12:12:08;3.97;;;2.60;;
37905;SDS011;23739;51.448;6.674;2023-08-20T12:14:34;4.35;;;2.60;;
37905;SDS011;23739;51.448;6.674;2023-08-20T12:17:00;5.35;;;2.42;;
37905;SDS011;23739;51.448;6.674;2023-08-20T12:19:28;3.70;;;2.22;;
37905;SDS011;23739;51.448;6.674;2023-08-20T12:21:54;5.18;;;2.60;;
37905;SDS011;23739;51.448;6.674;2023-08-20T12:24:20;6.85;;;2.17;;
37905;SDS011;23739;51.448;6.674;2023-08-20T12:26:46;4.68;;;2.47;;
37905;SDS011;23739;51.448;6.674;2023-08-20T12:29:12;5.63;;;2.00;;
37905;SDS011;23739;51.448;6.674;2023-08-20T12:31:39;6.45;;;1.90;;
37905;SDS011;23739;51.448;6.674;2023-08-20T12:34:06;10.30;;;2.28;;
37905;SDS011;23739;51.448;6.674;2023-08-20T12:36:33;5.07;;;2.00;;
37905;SDS011;23739;51.448;6.674;2023-08-20T12:38:59;6.20;;;2.13;;
37905;SDS011;23739;51.448;6.674;2023-08-20T12:41:25;4.22;;;2.28;;
37905;SDS011;23739;51.448;6.674;2023-08-20T12:43:52;5.22;;;1.58;;
37905;SDS011;23739;51.448;6.674;2023-08-20T12:46:17;4.93;;;2.00;;
37905;SDS011;23739;51.448;6.674;2023-08-20T12:48:43;4.57;;;1.65;;
37905;SDS011;23739;51.448;6.674;2023-08-20T12:51:09;3.30;;;1.55;;
37905;SDS011;23739;51.448;6.674;2023-08-20T12:53:38;3.08;;;1.50;;
37905;SDS011;23739;51.448;6.674;2023-08-20T12:56:04;4.47;;;2.00;;
37905;SDS011;23739;51.448;6.674;2023-08-20T12:58:30;4.90;;;1.60;;
37905;SDS011;23739;51.448;6.674;2023-08-20T13:00:56;4.75;;;2.03;;
37905;SDS011;23739;51.448;6.674;2023-08-20T13:03:22;4.03;;;1.45;;
37905;SDS011;23739;51.448;6.674;2023-08-20T13:05:48;5.15;;;1.80;;
37905;SDS011;23739;51.448;6.674;2023-08-20T13:08:14;4.80;;;2.20;;
37905;SDS011;23739;51.448;6.674;2023-08-20T13:10:41;7.18;;;2.47;;
37905;SDS011;23739;51.448;6.674;2023-08-20T13:13:09;3.40;;;1.52;;
37905;SDS011;23739;51.448;6.674;2023-08-20T13:15:36;3.78;;;1.77;;
37905;SDS011;23739;51.448;6.674;2023-08-20T13:18:02;7.63;;;1.80;;
37905;SDS011;23739;51.448;6.674;2023-08-20T13:20:29;5.13;;;1.80;;
37905;SDS011;23739;51.448;6.674;2023-08-20T13:22:55;3.20;;;1.75;;
37905;SDS011;23739;51.448;6.674;2023-08-20T13:25:20;5.13;;;2.28;;
37905;SDS011;23739;51.448;6.674;2023-08-20T13:27:47;3.92;;;1.85;;
37905;SDS011;23739;51.448;6.674;2023-08-20T13:30:13;7.80;;;2.00;;
37905;SDS011;23739;51.448;6.674;2023-08-20T13:32:39;4.38;;;1.77;;
37905;SDS011;23739;51.448;6.674;2023-08-20T13:35:05;6.50;;;1.95;;
37905;SDS011;23739;51.448;6.674;2023-08-20T13:37:31;4.05;;;1.38;;
37905;SDS011;23739;51.448;6.674;2023-08-20T13:39:57;4.97;;;1.75;;
37905;SDS011;23739;51.448;6.674;2023-08-20T13:42:24;4.15;;;1.60;;
37905;SDS011;23739;51.448;6.674;2023-08-20T13:44:49;3.85;;;2.00;;
37905;SDS011;23739;51.448;6.674;2023-08-20T13:47:15;5.28;;;2.30;;
37905;SDS011;23739;51.448;6.674;2023-08-20T13:49:41;4.18;;;2.08;;
37905;SDS011;23739;51.448;6.674;2023-08-20T13:52:07;6.05;;;2.20;;
37905;SDS011;23739;51.448;6.674;2023-08-20T13:54:34;7.15;;;2.53;;
37905;SDS011;23739;51.448;6.674;2023-08-20T13:57:00;7.30;;;2.65;;
37905;SDS011;23739;51.448;6.674;2023-08-20T13:59:26;3.13;;;1.67;;
37905;SDS011;23739;51.448;6.674;2023-08-20T14:01:51;7.25;;;1.73;;
37905;SDS011;23739;51.448;6.674;2023-08-20T14:04:17;3.38;;;1.58;;
37905;SDS011;23739;51.448;6.674;2023-08-20T14:06:43;5.03;;;2.17;;
37905;SDS011;23739;51.448;6.674;2023-08-20T14:09:09;4.38;;;1.65;;
37905;SDS011;23739;51.448;6.674;2023-08-20T14:11:35;4.05;;;2.28;;
37905;SDS011;23739;51.448;6.674;2023-08-20T14:14:01;3.72;;;1.90;;
37905;SDS011;23739;51.448;6.674;2023-08-20T14:16:26;4.75;;;1.73;;
37905;SDS011;23739;51.448;6.674;2023-08-20T14:18:52;4.70;;;1.58;;
37905;SDS011;23739;51.448;6.674;2023-08-20T14:21:18;4.20;;;2.15;;
37905;SDS011;23739;51.448;6.674;2023-08-20T14:23:44;6.60;;;2.25;;
37905;SDS011;23739;51.448;6.674;2023-08-20T14:26:10;3.58;;;2.10;;
37905;SDS011;23739;51.448;6.674;2023-08-20T14:28:35;4.82;;;1.55;;
37905;SDS011;23739;51.448;6.674;2023-08-20T14:31:02;5.00;;;1.90;;
37905;SDS011;23739;51.448;6.674;2023-08-20T14:33:29;4.93;;;1.50;;
37905;SDS011;23739;51.448;6.674;2023-08-20T14:35:57;5.28;;;2.33;;
37905;SDS011;23739;51.448;6.674;2023-08-20T14:38:23;5.13;;;2.22;;
37905;SDS011;23739;51.448;6.674;2023-08-20T14:40:49;2.88;;;1.75;;
37905;SDS011;23739;51.448;6.674;2023-08-20T14:43:15;2.85;;;1.52;;
37905;SDS011;23739;51.448;6.674;2023-08-20T14:45:41;4.78;;;1.95;;
37905;SDS011;23739;51.448;6.674;2023-08-20T14:48:06;5.65;;;1.77;;